sensor_id;sensor_type;location;lat;lon;timestamp;temperature;humidity
16767;DHT22;8501;49.926;8.404;2023-02-16T00:00:26;2.80;99.90
16767;DHT22;8501;49.926;8.404;2023-02-16T00:02:53;2.80;99.90
16767;DHT22;8501;49.926;8.404;2023-02-16T00:05:27;2.70;99.90
16767;DHT22;8501;49.926;8.404;2023-02-16T00:07:54;2.70;99.90
16767;DHT22;8501;49.926;8.404;2023-02-16T00:10:20;2.70;99.90
16767;DHT22;8501;49.926;8.404;2023-02-16T00:12:49;2.70;99.90
16767;DHT22;8501;49.926;8.404;2023-02-16T00:15:34;2.70;99.90
16767;DHT22;8501;49.926;8.404;2023-02-16T00:18:01;2.70;99.90
16767;DHT22;8501;49.926;8.404;2023-02-16T00:20:29;2.70;99.90
16767;DHT22;8501;49.926;8.404;2023-02-16T00:22:55;2.70;99.90
16767;DHT22;8501;49.926;8.404;2023-02-16T00:25:20;2.70;99.90
16767;DHT22;8501;49.926;8.404;2023-02-16T00:27:50;2.80;99.90
16767;DHT22;8501;49.926;8.404;2023-02-16T00:30:21;2.80;99.90
16767;DHT22;8501;49.926;8.404;2023-02-16T00:32:49;2.80;99.90
16767;DHT22;8501;49.926;8.404;2023-02-16T00:35:16;2.80;99.90
16767;DHT22;8501;49.926;8.404;2023-02-16T00:37:42;2.80;99.90
16767;DHT22;8501;49.926;8.404;2023-02-16T00:40:08;2.70;99.90
16767;DHT22;8501;49.926;8.404;2023-02-16T00:42:34;2.70;99.90
16767;DHT22;8501;49.926;8.404;2023-02-16T00:45:00;2.70;99.90
16767;DHT22;8501;49.926;8.404;2023-02-16T00:47:39;2.70;99.90
16767;DHT22;8501;49.926;8.404;2023-02-16T00:50:17;2.70;99.90
16767;DHT22;8501;49.926;8.404;2023-02-16T00:52:44;2.70;99.90
16767;DHT22;8501;49.926;8.404;2023-02-16T00:55:16;2.70;99.90
16767;DHT22;8501;49.926;8.404;2023-02-16T00:58:06;2.70;99.90
16767;DHT22;8501;49.926;8.404;2023-02-16T01:00:45;2.70;99.90
16767;DHT22;8501;49.926;8.404;2023-02-16T01:03:18;2.70;99.90
16767;DHT22;8501;49.926;8.404;2023-02-16T01:05:44;2.70;99.90
16767;DHT22;8501;49.926;8.404;2023-02-16T01:08:14;2.70;99.90
16767;DHT22;8501;49.926;8.404;2023-02-16T01:11:01;2.70;99.90
16767;DHT22;8501;49.926;8.404;2023-02-16T01:13:28;2.70;99.90
16767;DHT22;8501;49.926;8.404;2023-02-16T01:15:54;2.70;99.90
16767;DHT22;8501;49.926;8.404;2023-02-16T01:18:20;2.70;99.90
16767;DHT22;8501;49.926;8.404;2023-02-16T01:20:46;2.70;99.90
16767;DHT22;8501;49.926;8.404;2023-02-16T01:23:12;2.70;99.90
16767;DHT22;8501;49.926;8.404;2023-02-16T01:25:38;2.80;99.90
16767;DHT22;8501;49.926;8.404;2023-02-16T01:28:22;2.80;99.90
16767;DHT22;8501;49.926;8.404;2023-02-16T01:30:49;2.80;99.90
16767;DHT22;8501;49.926;8.404;2023-02-16T01:33:15;2.70;99.90
16767;DHT22;8501;49.926;8.404;2023-02-16T01:35:41;2.70;99.90
16767;DHT22;8501;49.926;8.404;2023-02-16T01:38:15;2.70;99.90
16767;DHT22;8501;49.926;8.404;2023-02-16T01:40:45;2.70;99.90
16767;DHT22;8501;49.926;8.404;2023-02-16T01:43:25;2.70;99.90
16767;DHT22;8501;49.926;8.404;2023-02-16T01:46:07;2.70;99.90
16767;DHT22;8501;49.926;8.404;2023-02-16T01:48:35;2.70;99.90
16767;DHT22;8501;49.926;8.404;2023-02-16T01:53:34;2.70;99.90
16767;DHT22;8501;49.926;8.404;2023-02-16T01:56:04;2.60;99.90
16767;DHT22;8501;49.926;8.404;2023-02-16T01:58:54;2.70;99.90
16767;DHT22;8501;49.926;8.404;2023-02-16T02:01:37;2.60;99.90
16767;DHT22;8501;49.926;8.404;2023-02-16T02:15:35;2.80;99.90
16767;DHT22;8501;49.926;8.404;2023-02-16T02:18:01;2.70;99.90
16767;DHT22;8501;49.926;8.404;2023-02-16T02:34:57;2.70;99.90
16767;DHT22;8501;49.926;8.404;2023-02-16T02:37:49;2.70;99.90
16767;DHT22;8501;49.926;8.404;2023-02-16T02:43:37;2.60;99.90
16767;DHT22;8501;49.926;8.404;2023-02-16T02:46:15;2.60;99.90
16767;DHT22;8501;49.926;8.404;2023-02-16T02:48:42;2.60;99.90
16767;DHT22;8501;49.926;8.404;2023-02-16T02:53:59;2.50;99.90
16767;DHT22;8501;49.926;8.404;2023-02-16T02:59:39;2.50;99.90
16767;DHT22;8501;49.926;8.404;2023-02-16T03:02:27;2.60;99.90
16767;DHT22;8501;49.926;8.404;2023-02-16T03:04:55;2.50;99.90
16767;DHT22;8501;49.926;8.404;2023-02-16T03:07:22;2.60;99.90
16767;DHT22;8501;49.926;8.404;2023-02-16T03:10:12;2.70;99.90
16767;DHT22;8501;49.926;8.404;2023-02-16T03:12:58;2.50;99.90
16767;DHT22;8501;49.926;8.404;2023-02-16T03:15:25;2.50;99.90
16767;DHT22;8501;49.926;8.404;2023-02-16T03:17:54;2.50;99.90
16767;DHT22;8501;49.926;8.404;2023-02-16T03:20:40;2.40;99.90
16767;DHT22;8501;49.926;8.404;2023-02-16T03:23:25;2.50;99.90
16767;DHT22;8501;49.926;8.404;2023-02-16T03:26:10;2.50;99.90
16767;DHT22;8501;49.926;8.404;2023-02-16T03:28:54;2.50;99.90
16767;DHT22;8501;49.926;8.404;2023-02-16T03:31:39;2.50;99.90
16767;DHT22;8501;49.926;8.404;2023-02-16T03:34:06;2.50;99.90
16767;DHT22;8501;49.926;8.404;2023-02-16T03:36:34;2.60;99.90
16767;DHT22;8501;49.926;8.404;2023-02-16T03:39:01;2.50;99.90
16767;DHT22;8501;49.926;8.404;2023-02-16T03:41:31;2.50;99.90
16767;DHT22;8501;49.926;8.404;2023-02-16T03:43:57;2.50;99.90
16767;DHT22;8501;49.926;8.404;2023-02-16T03:46:23;2.50;99.90
16767;DHT22;8501;49.926;8.404;2023-02-16T03:48:48;2.50;99.90
16767;DHT22;8501;49.926;8.404;2023-02-16T03:51:14;2.50;99.90
16767;DHT22;8501;49.926;8.404;2023-02-16T03:53:39;2.50;99.90
16767;DHT22;8501;49.926;8.404;2023-02-16T03:56:05;2.50;99.90
16767;DHT22;8501;49.926;8.404;2023-02-16T03:58:31;2.50;99.90
16767;DHT22;8501;49.926;8.404;2023-02-16T04:00:58;2.50;99.90
16767;DHT22;8501;49.926;8.404;2023-02-16T04:03:24;2.50;99.90
16767;DHT22;8501;49.926;8.404;2023-02-16T04:05:50;2.50;99.90
16767;DHT22;8501;49.926;8.404;2023-02-16T04:08:15;2.40;99.90
16767;DHT22;8501;49.926;8.404;2023-02-16T04:10:41;2.40;99.90
16767;DHT22;8501;49.926;8.404;2023-02-16T04:13:07;2.40;99.90
16767;DHT22;8501;49.926;8.404;2023-02-16T04:15:33;2.40;99.90
16767;DHT22;8501;49.926;8.404;2023-02-16T04:17:58;2.40;99.90
16767;DHT22;8501;49.926;8.404;2023-02-16T04:20:28;2.40;99.90
16767;DHT22;8501;49.926;8.404;2023-02-16T04:22:54;2.30;99.90
16767;DHT22;8501;49.926;8.404;2023-02-16T04:25:20;2.30;99.90
16767;DHT22;8501;49.926;8.404;2023-02-16T04:27:48;2.40;99.90
16767;DHT22;8501;49.926;8.404;2023-02-16T04:30:17;2.40;99.90
16767;DHT22;8501;49.926;8.404;2023-02-16T04:32:43;2.30;99.90
16767;DHT22;8501;49.926;8.404;2023-02-16T04:35:09;2.30;99.90
16767;DHT22;8501;49.926;8.404;2023-02-16T04:37:35;2.20;99.90
16767;DHT22;8501;49.926;8.404;2023-02-16T04:40:01;2.30;99.90
16767;DHT22;8501;49.926;8.404;2023-02-16T04:42:26;2.30;99.90
16767;DHT22;8501;49.926;8.404;2023-02-16T04:44:52;2.20;99.90
16767;DHT22;8501;49.926;8.404;2023-02-16T04:47:17;2.20;99.90
16767;DHT22;8501;49.926;8.404;2023-02-16T04:49:43;2.20;99.90
16767;DHT22;8501;49.926;8.404;2023-02-16T04:52:13;2.10;99.90
16767;DHT22;8501;49.926;8.404;2023-02-16T04:54:39;2.10;99.90
16767;DHT22;8501;49.926;8.404;2023-02-16T04:57:05;2.10;99.90
16767;DHT22;8501;49.926;8.404;2023-02-16T04:59:30;2.10;99.90
16767;DHT22;8501;49.926;8.404;2023-02-16T05:01:56;2.10;99.90
16767;DHT22;8501;49.926;8.404;2023-02-16T05:04:23;2.10;99.90
16767;DHT22;8501;49.926;8.404;2023-02-16T05:06:49;2.10;99.90
16767;DHT22;8501;49.926;8.404;2023-02-16T05:09:15;2.10;99.90
16767;DHT22;8501;49.926;8.404;2023-02-16T05:11:40;2.10;99.90
16767;DHT22;8501;49.926;8.404;2023-02-16T05:14:28;2.00;99.90
16767;DHT22;8501;49.926;8.404;2023-02-16T05:17:21;2.00;99.90
16767;DHT22;8501;49.926;8.404;2023-02-16T05:19:49;2.00;99.90
16767;DHT22;8501;49.926;8.404;2023-02-16T05:22:15;2.00;99.90
16767;DHT22;8501;49.926;8.404;2023-02-16T05:24:41;1.90;99.90
16767;DHT22;8501;49.926;8.404;2023-02-16T05:27:13;1.90;99.90
16767;DHT22;8501;49.926;8.404;2023-02-16T05:29:39;1.90;99.90
16767;DHT22;8501;49.926;8.404;2023-02-16T05:32:05;1.90;99.90
16767;DHT22;8501;49.926;8.404;2023-02-16T05:34:31;1.90;99.90
16767;DHT22;8501;49.926;8.404;2023-02-16T05:36:56;1.90;99.90
16767;DHT22;8501;49.926;8.404;2023-02-16T05:39:22;1.90;99.90
16767;DHT22;8501;49.926;8.404;2023-02-16T05:41:48;1.80;99.90
16767;DHT22;8501;49.926;8.404;2023-02-16T05:44:14;1.80;99.90
16767;DHT22;8501;49.926;8.404;2023-02-16T05:46:40;1.80;99.90
16767;DHT22;8501;49.926;8.404;2023-02-16T05:49:07;1.70;99.90
16767;DHT22;8501;49.926;8.404;2023-02-16T05:51:33;1.70;99.90
16767;DHT22;8501;49.926;8.404;2023-02-16T05:53:59;1.70;99.90
16767;DHT22;8501;49.926;8.404;2023-02-16T05:56:25;1.70;99.90
16767;DHT22;8501;49.926;8.404;2023-02-16T05:58:51;1.60;99.90
16767;DHT22;8501;49.926;8.404;2023-02-16T06:01:18;1.60;99.90
16767;DHT22;8501;49.926;8.404;2023-02-16T06:03:43;1.60;99.90
16767;DHT22;8501;49.926;8.404;2023-02-16T06:06:09;1.60;99.90
16767;DHT22;8501;49.926;8.404;2023-02-16T06:08:35;1.60;99.90
16767;DHT22;8501;49.926;8.404;2023-02-16T06:11:02;1.50;99.90
16767;DHT22;8501;49.926;8.404;2023-02-16T06:13:28;1.40;99.90
16767;DHT22;8501;49.926;8.404;2023-02-16T06:15:55;1.40;99.90
16767;DHT22;8501;49.926;8.404;2023-02-16T06:18:22;1.40;99.90
16767;DHT22;8501;49.926;8.404;2023-02-16T06:20:48;1.40;99.90
16767;DHT22;8501;49.926;8.404;2023-02-16T06:23:14;1.40;99.90
16767;DHT22;8501;49.926;8.404;2023-02-16T06:25:44;1.50;99.90
16767;DHT22;8501;49.926;8.404;2023-02-16T06:28:12;1.40;99.90
16767;DHT22;8501;49.926;8.404;2023-02-16T06:30:38;1.40;99.90
16767;DHT22;8501;49.926;8.404;2023-02-16T06:33:03;1.30;99.90
16767;DHT22;8501;49.926;8.404;2023-02-16T06:35:29;1.30;99.90
16767;DHT22;8501;49.926;8.404;2023-02-16T06:37:54;1.30;99.90
16767;DHT22;8501;49.926;8.404;2023-02-16T06:40:20;1.30;99.90
16767;DHT22;8501;49.926;8.404;2023-02-16T06:42:46;1.30;99.90
16767;DHT22;8501;49.926;8.404;2023-02-16T06:45:11;1.30;99.90
16767;DHT22;8501;49.926;8.404;2023-02-16T06:47:37;1.30;99.90
16767;DHT22;8501;49.926;8.404;2023-02-16T06:50:05;1.30;99.90
16767;DHT22;8501;49.926;8.404;2023-02-16T06:52:31;1.30;99.90
16767;DHT22;8501;49.926;8.404;2023-02-16T06:54:56;1.20;99.90
16767;DHT22;8501;49.926;8.404;2023-02-16T06:57:22;1.20;99.90
16767;DHT22;8501;49.926;8.404;2023-02-16T06:59:47;1.20;99.90
16767;DHT22;8501;49.926;8.404;2023-02-16T07:02:13;1.30;99.90
16767;DHT22;8501;49.926;8.404;2023-02-16T07:04:39;1.20;99.90
16767;DHT22;8501;49.926;8.404;2023-02-16T07:07:04;1.20;99.90
16767;DHT22;8501;49.926;8.404;2023-02-16T07:09:30;1.20;99.90
16767;DHT22;8501;49.926;8.404;2023-02-16T07:11:56;1.20;99.90
16767;DHT22;8501;49.926;8.404;2023-02-16T07:14:21;1.20;99.90
16767;DHT22;8501;49.926;8.404;2023-02-16T07:16:47;1.20;99.90
16767;DHT22;8501;49.926;8.404;2023-02-16T07:19:13;1.20;99.90
16767;DHT22;8501;49.926;8.404;2023-02-16T07:21:38;1.10;99.90
16767;DHT22;8501;49.926;8.404;2023-02-16T07:24:04;1.10;99.90
16767;DHT22;8501;49.926;8.404;2023-02-16T07:26:30;1.20;99.90
16767;DHT22;8501;49.926;8.404;2023-02-16T07:28:56;1.10;99.90
16767;DHT22;8501;49.926;8.404;2023-02-16T07:31:21;1.10;99.90
16767;DHT22;8501;49.926;8.404;2023-02-16T07:33:50;1.20;99.90
16767;DHT22;8501;49.926;8.404;2023-02-16T07:36:16;1.20;99.90
16767;DHT22;8501;49.926;8.404;2023-02-16T07:38:41;1.20;99.90
16767;DHT22;8501;49.926;8.404;2023-02-16T07:41:07;1.20;99.90
16767;DHT22;8501;49.926;8.404;2023-02-16T07:43:33;1.20;99.90
16767;DHT22;8501;49.926;8.404;2023-02-16T07:45:59;1.20;99.90
16767;DHT22;8501;49.926;8.404;2023-02-16T07:48:25;1.10;99.90
16767;DHT22;8501;49.926;8.404;2023-02-16T07:50:51;1.20;99.90
16767;DHT22;8501;49.926;8.404;2023-02-16T07:53:16;1.10;99.90
16767;DHT22;8501;49.926;8.404;2023-02-16T07:55:43;1.10;99.90
16767;DHT22;8501;49.926;8.404;2023-02-16T07:58:09;1.20;99.90
16767;DHT22;8501;49.926;8.404;2023-02-16T08:00:35;1.20;99.90
16767;DHT22;8501;49.926;8.404;2023-02-16T08:03:01;1.20;99.90
16767;DHT22;8501;49.926;8.404;2023-02-16T08:05:27;1.10;99.90
16767;DHT22;8501;49.926;8.404;2023-02-16T08:07:53;1.10;99.90
16767;DHT22;8501;49.926;8.404;2023-02-16T08:10:19;1.10;99.90
16767;DHT22;8501;49.926;8.404;2023-02-16T08:12:45;1.00;99.90
16767;DHT22;8501;49.926;8.404;2023-02-16T08:15:11;1.00;99.90
16767;DHT22;8501;49.926;8.404;2023-02-16T08:17:37;1.00;99.90
16767;DHT22;8501;49.926;8.404;2023-02-16T08:20:04;1.10;99.90
16767;DHT22;8501;49.926;8.404;2023-02-16T08:22:30;1.00;99.90
16767;DHT22;8501;49.926;8.404;2023-02-16T08:24:56;1.00;99.90
16767;DHT22;8501;49.926;8.404;2023-02-16T08:27:21;1.10;99.90
16767;DHT22;8501;49.926;8.404;2023-02-16T08:29:47;1.10;99.90
16767;DHT22;8501;49.926;8.404;2023-02-16T08:32:12;1.10;99.90
16767;DHT22;8501;49.926;8.404;2023-02-16T08:34:39;1.10;99.90
16767;DHT22;8501;49.926;8.404;2023-02-16T08:37:04;1.20;99.90
16767;DHT22;8501;49.926;8.404;2023-02-16T08:39:31;1.20;99.90
16767;DHT22;8501;49.926;8.404;2023-02-16T08:41:58;1.20;99.90
16767;DHT22;8501;49.926;8.404;2023-02-16T08:44:25;1.20;99.90
16767;DHT22;8501;49.926;8.404;2023-02-16T08:46:52;1.20;99.90
16767;DHT22;8501;49.926;8.404;2023-02-16T08:49:19;1.30;99.90
16767;DHT22;8501;49.926;8.404;2023-02-16T08:51:49;1.30;99.90
16767;DHT22;8501;49.926;8.404;2023-02-16T08:54:20;1.30;99.90
16767;DHT22;8501;49.926;8.404;2023-02-16T08:56:47;1.30;99.90
16767;DHT22;8501;49.926;8.404;2023-02-16T08:59:16;1.30;99.90
16767;DHT22;8501;49.926;8.404;2023-02-16T09:01:42;1.40;99.90
16767;DHT22;8501;49.926;8.404;2023-02-16T09:04:08;1.40;99.90
16767;DHT22;8501;49.926;8.404;2023-02-16T09:06:37;1.30;99.90
16767;DHT22;8501;49.926;8.404;2023-02-16T09:09:03;1.20;99.90
16767;DHT22;8501;49.926;8.404;2023-02-16T09:11:29;1.30;99.90
16767;DHT22;8501;49.926;8.404;2023-02-16T09:13:55;1.30;99.90
16767;DHT22;8501;49.926;8.404;2023-02-16T09:16:22;1.30;99.90
16767;DHT22;8501;49.926;8.404;2023-02-16T09:18:48;1.30;99.90
16767;DHT22;8501;49.926;8.404;2023-02-16T09:21:17;1.30;99.90
16767;DHT22;8501;49.926;8.404;2023-02-16T09:23:44;1.30;99.90
16767;DHT22;8501;49.926;8.404;2023-02-16T09:26:23;1.40;99.90
16767;DHT22;8501;49.926;8.404;2023-02-16T09:28:50;1.40;99.90
16767;DHT22;8501;49.926;8.404;2023-02-16T09:31:25;1.40;99.90
16767;DHT22;8501;49.926;8.404;2023-02-16T09:33:58;1.40;99.90
16767;DHT22;8501;49.926;8.404;2023-02-16T09:36:24;1.40;99.90
16767;DHT22;8501;49.926;8.404;2023-02-16T09:38:50;1.40;99.90
16767;DHT22;8501;49.926;8.404;2023-02-16T09:46:34;1.40;99.90
16767;DHT22;8501;49.926;8.404;2023-02-16T09:49:01;1.50;99.90
16767;DHT22;8501;49.926;8.404;2023-02-16T09:51:38;1.50;99.90
16767;DHT22;8501;49.926;8.404;2023-02-16T09:54:15;1.60;99.90
16767;DHT22;8501;49.926;8.404;2023-02-16T09:56:50;1.50;99.90
16767;DHT22;8501;49.926;8.404;2023-02-16T10:05:16;1.50;99.90
16767;DHT22;8501;49.926;8.404;2023-02-16T10:07:58;1.60;99.90
16767;DHT22;8501;49.926;8.404;2023-02-16T10:10:45;1.60;99.90
16767;DHT22;8501;49.926;8.404;2023-02-16T10:13:28;1.70;99.90
16767;DHT22;8501;49.926;8.404;2023-02-16T10:15:58;1.70;99.90
16767;DHT22;8501;49.926;8.404;2023-02-16T10:18:31;1.70;99.90
16767;DHT22;8501;49.926;8.404;2023-02-16T10:21:01;1.70;99.90
16767;DHT22;8501;49.926;8.404;2023-02-16T10:23:45;1.70;99.90
16767;DHT22;8501;49.926;8.404;2023-02-16T10:28:48;1.70;99.90
16767;DHT22;8501;49.926;8.404;2023-02-16T10:34:45;1.70;99.90
16767;DHT22;8501;49.926;8.404;2023-02-16T10:37:34;1.80;99.90
16767;DHT22;8501;49.926;8.404;2023-02-16T10:48:15;1.80;99.90
16767;DHT22;8501;49.926;8.404;2023-02-16T10:50:45;1.80;99.90
16767;DHT22;8501;49.926;8.404;2023-02-16T10:53:20;1.90;99.90
16767;DHT22;8501;49.926;8.404;2023-02-16T10:55:46;1.90;99.90
16767;DHT22;8501;49.926;8.404;2023-02-16T10:58:19;1.90;99.90
16767;DHT22;8501;49.926;8.404;2023-02-16T11:03:39;1.90;99.90
16767;DHT22;8501;49.926;8.404;2023-02-16T11:06:16;2.00;99.90
16767;DHT22;8501;49.926;8.404;2023-02-16T11:08:48;2.00;99.90
16767;DHT22;8501;49.926;8.404;2023-02-16T11:11:15;2.00;99.90
16767;DHT22;8501;49.926;8.404;2023-02-16T11:13:41;2.10;99.90
16767;DHT22;8501;49.926;8.404;2023-02-16T11:16:21;2.10;99.90
16767;DHT22;8501;49.926;8.404;2023-02-16T11:19:04;2.10;99.90
16767;DHT22;8501;49.926;8.404;2023-02-16T11:21:52;2.10;99.90
16767;DHT22;8501;49.926;8.404;2023-02-16T11:24:32;2.20;99.90
16767;DHT22;8501;49.926;8.404;2023-02-16T11:27:06;2.20;99.90
16767;DHT22;8501;49.926;8.404;2023-02-16T11:29:39;2.20;99.90
16767;DHT22;8501;49.926;8.404;2023-02-16T11:32:10;2.20;99.90
16767;DHT22;8501;49.926;8.404;2023-02-16T11:39:49;2.20;99.90
16767;DHT22;8501;49.926;8.404;2023-02-16T11:42:32;2.20;99.90
16767;DHT22;8501;49.926;8.404;2023-02-16T11:45:00;2.20;99.90
16767;DHT22;8501;49.926;8.404;2023-02-16T11:47:32;2.30;99.90
16767;DHT22;8501;49.926;8.404;2023-02-16T11:52:49;2.30;99.90
16767;DHT22;8501;49.926;8.404;2023-02-16T11:55:43;2.30;99.90
16767;DHT22;8501;49.926;8.404;2023-02-16T11:58:26;2.30;99.90
16767;DHT22;8501;49.926;8.404;2023-02-16T12:01:16;2.30;99.90
16767;DHT22;8501;49.926;8.404;2023-02-16T12:16:14;2.40;99.90
16767;DHT22;8501;49.926;8.404;2023-02-16T12:21:37;2.60;99.90
16767;DHT22;8501;49.926;8.404;2023-02-16T12:32:11;2.70;99.90
16767;DHT22;8501;49.926;8.404;2023-02-16T12:35:03;2.80;99.90
16767;DHT22;8501;49.926;8.404;2023-02-16T12:37:56;2.80;99.90
16767;DHT22;8501;49.926;8.404;2023-02-16T12:45:38;2.90;99.90
16767;DHT22;8501;49.926;8.404;2023-02-16T12:50:41;2.90;99.90
16767;DHT22;8501;49.926;8.404;2023-02-16T12:53:18;2.90;99.90
16767;DHT22;8501;49.926;8.404;2023-02-16T12:55:51;3.00;99.90
16767;DHT22;8501;49.926;8.404;2023-02-16T12:58:19;3.00;99.90
16767;DHT22;8501;49.926;8.404;2023-02-16T13:00:52;3.00;99.90
16767;DHT22;8501;49.926;8.404;2023-02-16T13:03:26;3.00;99.90
16767;DHT22;8501;49.926;8.404;2023-02-16T13:06:34;3.00;99.90
16767;DHT22;8501;49.926;8.404;2023-02-16T13:11:56;3.10;99.90
16767;DHT22;8501;49.926;8.404;2023-02-16T13:14:27;3.10;99.90
16767;DHT22;8501;49.926;8.404;2023-02-16T13:16:57;3.10;99.90
16767;DHT22;8501;49.926;8.404;2023-02-16T13:19:24;3.20;99.90
16767;DHT22;8501;49.926;8.404;2023-02-16T13:27:51;3.20;99.90
16767;DHT22;8501;49.926;8.404;2023-02-16T13:30:38;3.20;99.90
16767;DHT22;8501;49.926;8.404;2023-02-16T13:33:42;3.30;99.90
16767;DHT22;8501;49.926;8.404;2023-02-16T13:41:56;3.30;99.90
16767;DHT22;8501;49.926;8.404;2023-02-16T13:44:41;3.40;99.90
16767;DHT22;8501;49.926;8.404;2023-02-16T13:47:13;3.40;99.90
16767;DHT22;8501;49.926;8.404;2023-02-16T13:49:40;3.40;99.90
16767;DHT22;8501;49.926;8.404;2023-02-16T13:52:25;3.40;99.90
16767;DHT22;8501;49.926;8.404;2023-02-16T13:54:52;3.50;99.90
16767;DHT22;8501;49.926;8.404;2023-02-16T14:05:25;3.50;99.90
16767;DHT22;8501;49.926;8.404;2023-02-16T14:15:56;3.50;99.90
16767;DHT22;8501;49.926;8.404;2023-02-16T14:18:42;3.50;99.90
16767;DHT22;8501;49.926;8.404;2023-02-16T14:21:30;3.60;99.90
16767;DHT22;8501;49.926;8.404;2023-02-16T14:23:57;3.60;99.90
16767;DHT22;8501;49.926;8.404;2023-02-16T14:26:24;3.60;99.90
16767;DHT22;8501;49.926;8.404;2023-02-16T14:29:15;3.70;99.90
16767;DHT22;8501;49.926;8.404;2023-02-16T14:34:38;3.70;99.90
16767;DHT22;8501;49.926;8.404;2023-02-16T14:39:41;3.80;99.90
16767;DHT22;8501;49.926;8.404;2023-02-16T14:42:26;3.80;99.90
16767;DHT22;8501;49.926;8.404;2023-02-16T14:45:05;3.80;99.90
16767;DHT22;8501;49.926;8.404;2023-02-16T14:50:16;3.90;99.90
16767;DHT22;8501;49.926;8.404;2023-02-16T14:53:16;3.90;99.90
16767;DHT22;8501;49.926;8.404;2023-02-16T14:56:23;3.90;99.90
16767;DHT22;8501;49.926;8.404;2023-02-16T15:01:47;3.90;99.90
16767;DHT22;8501;49.926;8.404;2023-02-16T15:04:26;4.00;99.90
16767;DHT22;8501;49.926;8.404;2023-02-16T15:06:52;4.00;99.90
16767;DHT22;8501;49.926;8.404;2023-02-16T15:09:21;4.00;99.90
16767;DHT22;8501;49.926;8.404;2023-02-16T15:11:52;4.00;99.90
16767;DHT22;8501;49.926;8.404;2023-02-16T15:14:58;4.00;99.90
16767;DHT22;8501;49.926;8.404;2023-02-16T15:17:39;4.00;99.90
16767;DHT22;8501;49.926;8.404;2023-02-16T15:20:20;4.00;99.90
16767;DHT22;8501;49.926;8.404;2023-02-16T15:23:21;4.00;99.90
16767;DHT22;8501;49.926;8.404;2023-02-16T15:26:05;4.00;99.90
16767;DHT22;8501;49.926;8.404;2023-02-16T15:28:34;4.00;99.90
16767;DHT22;8501;49.926;8.404;2023-02-16T15:31:03;4.00;99.90
16767;DHT22;8501;49.926;8.404;2023-02-16T15:33:52;4.00;99.90
16767;DHT22;8501;49.926;8.404;2023-02-16T15:36:22;4.00;99.90
16767;DHT22;8501;49.926;8.404;2023-02-16T15:41:25;4.00;99.90
16767;DHT22;8501;49.926;8.404;2023-02-16T15:43:51;4.10;99.90
16767;DHT22;8501;49.926;8.404;2023-02-16T15:48:54;4.10;99.90
16767;DHT22;8501;49.926;8.404;2023-02-16T15:51:30;4.10;99.90
16767;DHT22;8501;49.926;8.404;2023-02-16T15:56:28;4.10;99.90
16767;DHT22;8501;49.926;8.404;2023-02-16T15:58:57;4.10;99.90
16767;DHT22;8501;49.926;8.404;2023-02-16T16:01:26;4.20;99.90
16767;DHT22;8501;49.926;8.404;2023-02-16T16:04:21;4.20;99.90
16767;DHT22;8501;49.926;8.404;2023-02-16T16:06:43;4.20;99.90
16767;DHT22;8501;49.926;8.404;2023-02-16T16:09:29;4.20;99.90
16767;DHT22;8501;49.926;8.404;2023-02-16T16:11:58;4.20;99.90
16767;DHT22;8501;49.926;8.404;2023-02-16T16:14:24;4.20;99.90
16767;DHT22;8501;49.926;8.404;2023-02-16T16:16:51;4.20;99.90
16767;DHT22;8501;49.926;8.404;2023-02-16T16:19:20;4.20;99.90
16767;DHT22;8501;49.926;8.404;2023-02-16T16:21:50;4.20;99.90
16767;DHT22;8501;49.926;8.404;2023-02-16T16:24:28;4.20;99.90
16767;DHT22;8501;49.926;8.404;2023-02-16T16:26:59;4.20;99.90
16767;DHT22;8501;49.926;8.404;2023-02-16T16:29:44;4.20;99.90
16767;DHT22;8501;49.926;8.404;2023-02-16T16:34:42;4.20;99.90
16767;DHT22;8501;49.926;8.404;2023-02-16T16:45:43;4.20;99.90
16767;DHT22;8501;49.926;8.404;2023-02-16T16:48:30;4.20;99.90
16767;DHT22;8501;49.926;8.404;2023-02-16T16:51:09;4.10;99.90
16767;DHT22;8501;49.926;8.404;2023-02-16T16:54:01;4.10;99.90
16767;DHT22;8501;49.926;8.404;2023-02-16T16:56:29;4.20;99.90
16767;DHT22;8501;49.926;8.404;2023-02-16T16:58:56;4.20;99.90
16767;DHT22;8501;49.926;8.404;2023-02-16T17:01:23;4.20;99.90
16767;DHT22;8501;49.926;8.404;2023-02-16T17:03:49;4.20;99.90
16767;DHT22;8501;49.926;8.404;2023-02-16T17:06:15;4.20;99.90
16767;DHT22;8501;49.926;8.404;2023-02-16T17:08:45;4.20;99.90
16767;DHT22;8501;49.926;8.404;2023-02-16T17:11:26;4.20;99.90
16767;DHT22;8501;49.926;8.404;2023-02-16T17:13:53;4.30;99.90
16767;DHT22;8501;49.926;8.404;2023-02-16T17:16:27;4.20;99.90
16767;DHT22;8501;49.926;8.404;2023-02-16T17:18:53;4.20;99.90
16767;DHT22;8501;49.926;8.404;2023-02-16T17:21:19;4.20;99.90
16767;DHT22;8501;49.926;8.404;2023-02-16T17:23:45;4.20;99.90
16767;DHT22;8501;49.926;8.404;2023-02-16T17:26:11;4.20;99.90
16767;DHT22;8501;49.926;8.404;2023-02-16T17:28:36;4.20;99.90
16767;DHT22;8501;49.926;8.404;2023-02-16T17:31:03;4.10;99.90
16767;DHT22;8501;49.926;8.404;2023-02-16T17:33:29;4.10;99.90
16767;DHT22;8501;49.926;8.404;2023-02-16T17:35:54;4.10;99.90
16767;DHT22;8501;49.926;8.404;2023-02-16T17:38:22;4.10;99.90
16767;DHT22;8501;49.926;8.404;2023-02-16T17:40:49;4.10;99.90
16767;DHT22;8501;49.926;8.404;2023-02-16T17:43:16;4.10;99.90
16767;DHT22;8501;49.926;8.404;2023-02-16T17:45:42;4.10;99.90
16767;DHT22;8501;49.926;8.404;2023-02-16T17:48:26;4.00;99.90
16767;DHT22;8501;49.926;8.404;2023-02-16T17:50:53;4.00;99.90
16767;DHT22;8501;49.926;8.404;2023-02-16T17:53:21;4.00;99.90
16767;DHT22;8501;49.926;8.404;2023-02-16T17:55:48;4.00;99.90
16767;DHT22;8501;49.926;8.404;2023-02-16T17:58:15;4.00;99.90
16767;DHT22;8501;49.926;8.404;2023-02-16T18:00:41;3.90;99.90
16767;DHT22;8501;49.926;8.404;2023-02-16T18:03:07;4.00;99.90
16767;DHT22;8501;49.926;8.404;2023-02-16T18:05:33;4.00;99.90
16767;DHT22;8501;49.926;8.404;2023-02-16T18:07:59;4.10;99.90
16767;DHT22;8501;49.926;8.404;2023-02-16T18:10:36;4.00;99.90
16767;DHT22;8501;49.926;8.404;2023-02-16T18:13:04;4.00;99.90
16767;DHT22;8501;49.926;8.404;2023-02-16T18:15:29;4.00;99.90
16767;DHT22;8501;49.926;8.404;2023-02-16T18:17:55;4.00;99.90
16767;DHT22;8501;49.926;8.404;2023-02-16T18:20:22;4.00;99.90
16767;DHT22;8501;49.926;8.404;2023-02-16T18:22:47;4.10;99.90
16767;DHT22;8501;49.926;8.404;2023-02-16T18:25:13;4.10;99.90
16767;DHT22;8501;49.926;8.404;2023-02-16T18:27:38;4.10;99.90
16767;DHT22;8501;49.926;8.404;2023-02-16T18:30:05;4.10;99.90
16767;DHT22;8501;49.926;8.404;2023-02-16T18:32:31;4.10;99.90
16767;DHT22;8501;49.926;8.404;2023-02-16T18:34:57;4.10;99.90
16767;DHT22;8501;49.926;8.404;2023-02-16T18:37:23;4.10;99.90
16767;DHT22;8501;49.926;8.404;2023-02-16T18:39:49;4.10;99.90
16767;DHT22;8501;49.926;8.404;2023-02-16T18:42:15;4.10;99.90
16767;DHT22;8501;49.926;8.404;2023-02-16T18:44:40;4.00;99.90
16767;DHT22;8501;49.926;8.404;2023-02-16T18:47:07;4.00;99.90
16767;DHT22;8501;49.926;8.404;2023-02-16T18:49:32;4.00;99.90
16767;DHT22;8501;49.926;8.404;2023-02-16T18:51:58;4.00;99.90
16767;DHT22;8501;49.926;8.404;2023-02-16T18:54:24;4.00;99.90
16767;DHT22;8501;49.926;8.404;2023-02-16T18:56:49;4.00;99.90
16767;DHT22;8501;49.926;8.404;2023-02-16T18:59:15;4.00;99.90
16767;DHT22;8501;49.926;8.404;2023-02-16T19:01:40;4.00;99.90
16767;DHT22;8501;49.926;8.404;2023-02-16T19:04:06;4.00;99.90
16767;DHT22;8501;49.926;8.404;2023-02-16T19:06:32;4.00;99.90
16767;DHT22;8501;49.926;8.404;2023-02-16T19:08:57;4.00;99.90